KHPN/HPN METAR and TAF weather

Enter ICAO airport designator
Station Type Date Time Source
KHPN METAR 2022/01/23 11:56 UTC NOAA

KHPN 231156Z 00000KT 10SM CLR M06/M16 A2995 RMK AO2 SLP153 T10611161 11050 21072 55007


Station Type Date Time Source
KHPN Decoded METAR 2022/01/23 11:56 UTC NOAA

WHITE PLAINS WESTCHESTER, NY, United States (KHPN) 41-04N 073-42W 121M
Jan 23, 2022 - 06:56 AM EST / 2022.01.23 1156 UTC
Wind: Calm:0
Visibility: 10 mile(s):0
Sky conditions: clear
Temperature: 21.0 F (-6.1 C)
Dew Point: 3.0 F (-16.1 C)
Relative Humidity: 45%
Pressure (altimeter): 29.95 in. Hg (1014 hPa)
Pressure tendency: 0.02 inches (0.7 hPa) lower than three hours ago
ob: KHPN 231156Z 00000KT 10SM CLR M06/M16 A2995 RMK AO2 SLP153 T10611161 11050 21072 55007
cycle: 12

Station Type Date Time Source
KHPN TAF 2022/01/23 12:24 UTC NOAA

TAF KHPN 231121Z 2312/2412 VRB05KT P6SM BKN250
FM231400 26006KT P6SM BKN100 BKN250
FM231900 26009KT P6SM SCT050 BKN090
FM232300 VRB04KT P6SM -SHSN FEW025 BKN035
FM240600 33006KT P6SM BKN035
AMD NOT SKED

Example: see airport list